createdAt,value
2019-02-24T00:00:27.748Z,9.17
2019-02-24T00:02:56.854Z,8.23
2019-02-24T00:05:26.537Z,7.87
2019-02-24T00:07:55.454Z,7.90
2019-02-24T00:10:24.386Z,8.90
2019-02-24T00:12:53.617Z,8.67
2019-02-24T00:15:22.621Z,9.30
2019-02-24T00:17:51.550Z,9.00
2019-02-24T00:20:20.462Z,8.33
2019-02-24T00:22:54.362Z,8.73
2019-02-24T00:25:23.625Z,8.40
2019-02-24T00:27:52.954Z,9.00
2019-02-24T00:30:21.950Z,8.70
2019-02-24T00:32:51.222Z,9.33
2019-02-24T00:35:20.223Z,8.33
2019-02-24T00:37:49.467Z,9.30
2019-02-24T00:40:18.502Z,8.47
2019-02-24T00:42:47.729Z,9.17
2019-02-24T00:45:17.053Z,8.90
2019-02-24T00:47:46.422Z,9.13
2019-02-24T00:50:15.747Z,9.13
2019-02-24T00:52:44.745Z,8.23
2019-02-24T00:55:33.359Z,8.63
2019-02-24T00:58:02.686Z,8.70
2019-02-24T01:00:32.014Z,8.80
2019-02-24T01:03:01.366Z,9.10
2019-02-24T01:05:30.691Z,8.63
2019-02-24T01:07:59.686Z,9.07
2019-02-24T01:10:28.621Z,9.33
2019-02-24T01:12:57.860Z,9.07
2019-02-24T01:15:27.177Z,9.07
2019-02-24T01:17:56.537Z,8.83
2019-02-24T01:20:25.872Z,9.00
2019-02-24T01:22:55.197Z,9.27
2019-02-24T01:25:24.549Z,9.13
2019-02-24T01:27:53.888Z,11.50
2019-02-24T01:30:23.218Z,9.67
2019-02-24T01:32:52.578Z,9.97
2019-02-24T01:35:21.909Z,9.83
2019-02-24T01:37:50.913Z,8.90
2019-02-24T01:40:20.186Z,9.10
2019-02-24T01:42:49.469Z,9.10
2019-02-24T01:45:18.505Z,9.60
2019-02-24T01:47:47.786Z,9.90
2019-02-24T01:50:16.782Z,10.07
2019-02-24T01:52:46.033Z,9.53
2019-02-24T01:55:15.382Z,9.40
2019-02-24T01:57:44.714Z,9.40
2019-02-24T02:00:13.713Z,9.80
2019-02-24T02:02:42.978Z,9.37
2019-02-24T02:05:12.302Z,9.53
2019-02-24T02:07:41.639Z,9.33
2019-02-24T02:10:10.656Z,9.87
2019-02-24T02:12:39.562Z,8.93
2019-02-24T02:15:08.482Z,9.37
2019-02-24T02:17:37.749Z,9.10
2019-02-24T02:20:08.113Z,9.43
2019-02-24T02:22:37.346Z,9.73
2019-02-24T02:25:08.553Z,9.07
2019-02-24T02:27:37.841Z,8.73
2019-02-24T02:30:09.856Z,8.50
2019-02-24T02:32:39.188Z,9.13
2019-02-24T02:35:08.851Z,9.90
2019-02-24T02:37:38.232Z,9.50
2019-02-24T02:40:07.927Z,9.20
2019-02-24T02:42:37.157Z,9.47
2019-02-24T02:45:08.336Z,9.37
2019-02-24T02:47:37.686Z,9.17
2019-02-24T02:50:07.090Z,8.80
2019-02-24T02:52:36.418Z,9.53
2019-02-24T02:55:06.918Z,8.80
2019-02-24T02:57:35.912Z,9.67
2019-02-24T03:00:29.274Z,9.50
2019-02-24T03:02:58.272Z,9.23
2019-02-24T03:05:27.246Z,9.20
2019-02-24T03:07:57.817Z,9.80
2019-02-24T03:10:27.059Z,9.80
2019-02-24T03:12:56.054Z,8.93
2019-02-24T03:15:25.401Z,9.27
2019-02-24T03:17:54.397Z,8.57
2019-02-24T03:20:23.641Z,8.93
2019-02-24T03:22:53.001Z,8.40
2019-02-24T03:25:21.997Z,9.50
2019-02-24T03:27:51.238Z,9.50
2019-02-24T03:30:20.591Z,9.47
2019-02-24T03:32:49.585Z,9.13
2019-02-24T03:35:18.496Z,9.53
2019-02-24T03:37:47.757Z,9.97
2019-02-24T03:40:17.093Z,9.13
2019-02-24T03:42:46.418Z,9.70
2019-02-24T03:45:15.445Z,9.50
2019-02-24T03:47:44.358Z,9.20
2019-02-24T03:50:13.681Z,11.17
2019-02-24T03:52:42.711Z,11.50
2019-02-24T03:55:11.941Z,11.07
2019-02-24T03:57:40.938Z,11.13
2019-02-24T04:00:10.210Z,10.73
2019-02-24T04:02:39.210Z,10.47
2019-02-24T04:05:08.134Z,11.40
2019-02-24T04:07:37.076Z,11.03
2019-02-24T04:10:06.559Z,10.87
2019-02-24T04:12:35.793Z,10.73
2019-02-24T04:15:06.000Z,10.40
2019-02-24T04:17:35.321Z,11.90
2019-02-24T04:20:05.082Z,10.83
2019-02-24T04:22:34.437Z,12.03
2019-02-24T04:25:03.923Z,10.80
2019-02-24T04:27:33.242Z,12.07
2019-02-24T04:30:02.601Z,10.90
2019-02-24T04:32:31.938Z,10.97
2019-02-24T04:35:01.279Z,11.00
2019-02-24T04:37:30.630Z,11.10
2019-02-24T04:39:59.962Z,10.60
2019-02-24T04:42:29.299Z,10.93
2019-02-24T04:44:58.653Z,11.33
2019-02-24T04:47:27.978Z,12.07
2019-02-24T04:49:57.311Z,11.00
2019-02-24T04:52:26.671Z,11.83
2019-02-24T04:54:56.012Z,11.17
2019-02-24T04:57:25.337Z,11.53
2019-02-24T04:59:54.689Z,10.77
2019-02-24T05:02:24.022Z,10.73
2019-02-24T05:04:53.358Z,11.53
2019-02-24T05:07:22.730Z,11.00
2019-02-24T05:09:52.067Z,10.97
2019-02-24T05:12:21.393Z,12.00
2019-02-24T05:14:50.763Z,11.30
2019-02-24T05:17:20.090Z,11.60
2019-02-24T05:19:49.424Z,11.63
2019-02-24T05:22:18.797Z,11.97
2019-02-24T05:24:48.133Z,11.07
2019-02-24T05:27:17.464Z,10.67
2019-02-24T05:29:46.841Z,11.63
2019-02-24T05:32:16.170Z,11.40
2019-02-24T05:34:45.499Z,11.50
2019-02-24T05:37:14.873Z,12.30
2019-02-24T05:39:44.206Z,12.43
2019-02-24T05:42:13.535Z,12.37
2019-02-24T05:44:42.893Z,11.90
2019-02-24T05:47:12.241Z,12.67
2019-02-24T05:49:41.558Z,13.23
2019-02-24T05:52:10.598Z,12.63
2019-02-24T05:54:39.848Z,12.70
2019-02-24T05:57:09.188Z,13.10
2019-02-24T05:59:38.545Z,12.47
2019-02-24T06:02:07.881Z,11.67
2019-02-24T06:04:37.240Z,12.17
2019-02-24T06:07:06.573Z,11.20
2019-02-24T06:09:35.910Z,11.83
2019-02-24T06:12:05.242Z,12.10
2019-02-24T06:14:34.613Z,12.33
2019-02-24T06:17:03.943Z,12.60
2019-02-24T06:19:33.277Z,12.73
2019-02-24T06:22:02.638Z,11.43
2019-02-24T06:24:31.965Z,13.20
2019-02-24T06:27:01.285Z,13.00
2019-02-24T06:29:30.656Z,11.83
2019-02-24T06:32:14.725Z,12.97
2019-02-24T06:34:45.634Z,12.93
2019-02-24T06:37:14.641Z,12.93
2019-02-24T06:39:43.889Z,13.53
2019-02-24T06:42:13.251Z,11.17
2019-02-24T06:44:42.583Z,11.77
2019-02-24T06:47:11.911Z,13.40
2019-02-24T06:49:41.340Z,12.93
2019-02-24T06:52:10.713Z,12.67
2019-02-24T06:54:40.047Z,12.87
2019-02-24T06:57:09.403Z,13.77
2019-02-24T06:59:38.729Z,14.60
2019-02-24T07:02:08.071Z,13.63
2019-02-24T07:04:37.452Z,13.53
2019-02-24T07:07:06.791Z,14.83
2019-02-24T07:09:36.117Z,13.10
2019-02-24T07:12:05.490Z,13.10
2019-02-24T07:14:34.846Z,12.97
2019-02-24T07:17:04.187Z,12.53
2019-02-24T07:19:35.228Z,12.17
2019-02-24T07:22:04.662Z,11.90
2019-02-24T07:24:33.991Z,13.33
2019-02-24T07:27:03.377Z,14.53
2019-02-24T07:29:32.693Z,13.67
2019-02-24T07:32:02.042Z,12.00
2019-02-24T07:34:31.392Z,12.17
2019-02-24T07:37:00.733Z,12.17
2019-02-24T07:39:30.089Z,12.93
2019-02-24T07:42:04.468Z,12.40
2019-02-24T07:44:56.644Z,12.17
2019-02-24T07:47:39.698Z,13.30
2019-02-24T07:50:20.182Z,13.80
2019-02-24T07:52:49.684Z,14.00
2019-02-24T07:55:21.072Z,13.37
2019-02-24T07:57:50.807Z,12.70
2019-02-24T08:00:22.131Z,13.20
2019-02-24T08:02:53.094Z,14.00
2019-02-24T08:05:22.842Z,12.87
2019-02-24T08:07:54.242Z,13.13
2019-02-24T08:10:42.239Z,12.93
2019-02-24T08:13:18.074Z,13.90
2019-02-24T08:15:47.402Z,14.73
2019-02-24T08:18:16.730Z,13.00
2019-02-24T08:20:46.158Z,14.33
2019-02-24T08:23:15.515Z,12.43
2019-02-24T08:25:44.852Z,13.47
2019-02-24T08:28:14.209Z,13.20
2019-02-24T08:30:43.533Z,12.47
2019-02-24T08:33:12.857Z,12.47
2019-02-24T08:35:42.390Z,12.73
2019-02-24T08:38:11.709Z,12.73
2019-02-24T08:40:41.045Z,14.50
2019-02-24T08:43:59.138Z,13.67
2019-02-24T08:46:28.917Z,14.63
2019-02-24T08:48:58.244Z,13.83
2019-02-24T08:51:27.612Z,15.10
2019-02-24T08:53:56.937Z,13.93
2019-02-24T08:56:26.281Z,15.93
2019-02-24T08:58:55.625Z,24.33
2019-02-24T09:01:24.958Z,15.03
2019-02-24T09:03:54.286Z,14.57
2019-02-24T09:06:23.654Z,14.20
2019-02-24T09:08:53.278Z,12.80
2019-02-24T09:11:22.596Z,14.47
2019-02-24T09:13:51.962Z,14.53
2019-02-24T09:16:40.639Z,14.83
2019-02-24T09:19:10.073Z,13.00
2019-02-24T09:21:58.757Z,13.73
2019-02-24T09:24:28.118Z,13.33
2019-02-24T09:27:16.800Z,13.70
2019-02-24T09:29:46.158Z,12.67
2019-02-24T09:32:15.493Z,13.97
2019-02-24T09:34:44.830Z,13.57
2019-02-24T09:37:14.193Z,13.70
2019-02-24T09:39:43.617Z,12.73
2019-02-24T09:42:12.966Z,13.50
2019-02-24T09:44:42.390Z,14.27
2019-02-24T09:47:11.730Z,13.93
2019-02-24T09:49:41.065Z,13.53
2019-02-24T09:52:10.433Z,14.67
2019-02-24T09:54:39.765Z,14.03
2019-02-24T09:57:09.114Z,14.10
2019-02-24T09:59:38.551Z,13.70
2019-02-24T10:02:07.894Z,13.83
2019-02-24T10:04:37.234Z,14.27
2019-02-24T10:07:06.668Z,14.50
2019-02-24T10:09:36.007Z,14.90
2019-02-24T10:12:05.342Z,14.27
2019-02-24T10:14:34.709Z,14.60
2019-02-24T10:17:04.045Z,14.80
2019-02-24T10:19:33.379Z,13.93
2019-02-24T10:22:02.742Z,13.47
2019-02-24T10:24:32.077Z,14.33
2019-02-24T10:27:01.490Z,15.03
2019-02-24T10:29:30.848Z,14.10
2019-02-24T10:32:00.203Z,14.07
2019-02-24T10:34:29.547Z,15.53
2019-02-24T10:36:58.944Z,14.97
2019-02-24T10:39:29.879Z,14.33
2019-02-24T10:41:59.413Z,14.47
2019-02-24T10:44:28.791Z,14.37
2019-02-24T10:46:58.237Z,15.77
2019-02-24T10:49:27.640Z,15.23
2019-02-24T10:51:57.015Z,14.70
2019-02-24T10:54:26.363Z,15.50
2019-02-24T10:56:55.784Z,15.53
2019-02-24T10:59:25.204Z,14.23
2019-02-24T11:01:57.141Z,15.97
2019-02-24T11:04:27.178Z,16.03
2019-02-24T11:06:56.539Z,15.90
2019-02-24T11:09:25.892Z,16.03
2019-02-24T11:11:55.220Z,16.27
2019-02-24T11:14:24.642Z,16.23
2019-02-24T11:16:53.974Z,16.43
2019-02-24T11:19:23.326Z,17.07
2019-02-24T11:21:52.694Z,16.30
2019-02-24T11:24:22.029Z,17.10
2019-02-24T11:26:51.361Z,16.37
2019-02-24T11:29:20.729Z,15.57
2019-02-24T11:31:50.079Z,15.07
2019-02-24T11:34:19.435Z,15.63
2019-02-24T11:36:48.789Z,16.47
2019-02-24T11:39:18.135Z,15.47
2019-02-24T11:41:47.475Z,14.97
2019-02-24T11:44:16.850Z,16.20
2019-02-24T11:46:46.177Z,14.70
2019-02-24T11:49:15.513Z,15.87
2019-02-24T11:51:44.886Z,15.60
2019-02-24T11:54:14.220Z,15.10
2019-02-24T11:56:43.633Z,15.03
2019-02-24T11:59:12.997Z,15.50
2019-02-24T12:01:47.550Z,15.77
2019-02-24T12:04:13.373Z,15.60
2019-02-24T12:06:42.738Z,15.97
2019-02-24T12:09:12.083Z,16.27
2019-02-24T12:11:41.438Z,16.60
2019-02-24T12:14:15.775Z,16.53
2019-02-24T12:16:45.101Z,15.67
2019-02-24T12:19:14.439Z,15.77
2019-02-24T12:21:43.804Z,15.93
2019-02-24T12:24:13.137Z,15.93
2019-02-24T12:26:42.472Z,15.60
2019-02-24T12:29:11.843Z,15.07
2019-02-24T12:31:41.240Z,16.03
2019-02-24T12:34:10.578Z,15.23
2019-02-24T12:36:40.130Z,13.83
2019-02-24T12:39:09.470Z,14.40
2019-02-24T12:41:38.862Z,13.70
2019-02-24T12:44:08.231Z,15.30
2019-02-24T12:46:37.561Z,14.50
2019-02-24T12:49:06.893Z,13.83
2019-02-24T12:51:36.266Z,13.63
2019-02-24T12:54:05.606Z,13.90
2019-02-24T12:56:34.946Z,13.63
2019-02-24T12:59:04.310Z,13.80
2019-02-24T13:01:33.717Z,14.20
2019-02-24T13:04:03.058Z,13.70
2019-02-24T13:06:32.437Z,13.40
2019-02-24T13:09:01.776Z,13.80
2019-02-24T13:11:31.292Z,14.33
2019-02-24T13:14:00.705Z,15.23
2019-02-24T13:16:30.042Z,15.43
2019-02-24T13:18:59.373Z,14.80
2019-02-24T13:21:28.742Z,14.37
2019-02-24T13:23:58.091Z,13.40
2019-02-24T13:26:27.422Z,15.37
2019-02-24T13:28:56.776Z,40.63
2019-02-24T13:31:26.127Z,19.57
2019-02-24T13:33:55.453Z,13.80
2019-02-24T13:36:24.825Z,13.30
2019-02-24T13:38:54.155Z,12.97
2019-02-24T13:41:23.498Z,12.93
2019-02-24T13:43:52.869Z,12.90
2019-02-24T13:46:22.198Z,12.83
2019-02-24T13:48:51.536Z,12.93
2019-02-24T13:51:20.914Z,12.87
2019-02-24T13:53:50.246Z,12.60
2019-02-24T13:56:19.587Z,12.30
2019-02-24T13:58:48.960Z,12.70
2019-02-24T14:01:18.298Z,13.00
2019-02-24T14:03:47.637Z,12.40
2019-02-24T14:06:17.006Z,12.73
2019-02-24T14:08:46.345Z,12.13
2019-02-24T14:11:15.733Z,13.10
2019-02-24T14:13:45.097Z,12.93
2019-02-24T14:16:14.437Z,13.00
2019-02-24T14:18:43.853Z,14.03
2019-02-24T14:21:13.226Z,13.43
2019-02-24T14:23:42.577Z,13.63
2019-02-24T14:26:11.905Z,13.23
2019-02-24T14:28:41.273Z,13.47
2019-02-24T14:31:10.606Z,12.57
2019-02-24T14:33:39.947Z,12.30
2019-02-24T14:36:09.313Z,12.07
2019-02-24T14:38:38.666Z,12.60
2019-02-24T14:41:08.960Z,11.87
2019-02-24T14:43:38.442Z,12.17
2019-02-24T14:46:07.782Z,13.33
2019-02-24T14:48:37.121Z,12.73
2019-02-24T14:51:06.506Z,12.33
2019-02-24T14:53:35.856Z,11.70
2019-02-24T14:56:05.189Z,13.10
2019-02-24T14:58:34.555Z,12.37
2019-02-24T15:01:03.900Z,12.53
2019-02-24T15:03:33.225Z,12.73
2019-02-24T15:06:02.590Z,12.10
2019-02-24T15:08:31.925Z,13.20
2019-02-24T15:11:01.267Z,13.13
2019-02-24T15:13:35.558Z,12.30
2019-02-24T15:16:04.962Z,14.60
2019-02-24T15:18:34.302Z,13.67
2019-02-24T15:21:03.661Z,13.63
2019-02-24T15:23:32.997Z,12.10
2019-02-24T15:26:02.339Z,13.40
2019-02-24T15:28:31.697Z,14.33
2019-02-24T15:31:01.046Z,14.57
2019-02-24T15:33:30.377Z,13.57
2019-02-24T15:35:59.760Z,13.73
2019-02-24T15:38:29.098Z,13.63
2019-02-24T15:40:58.450Z,14.10
2019-02-24T15:43:27.828Z,13.03
2019-02-24T15:45:57.165Z,12.07
2019-02-24T15:48:26.510Z,13.30
2019-02-24T15:50:55.886Z,13.00
2019-02-24T15:53:30.192Z,13.50
2019-02-24T15:56:00.157Z,15.40
2019-02-24T15:58:29.530Z,13.67
2019-02-24T16:00:58.870Z,14.40
2019-02-24T16:03:28.235Z,12.70
2019-02-24T16:05:57.607Z,13.13
2019-02-24T16:08:26.942Z,13.23
2019-02-24T16:10:56.280Z,13.17
2019-02-24T16:13:25.642Z,12.57
2019-02-24T16:16:14.336Z,13.47
2019-02-24T16:18:43.703Z,13.17
2019-02-24T16:21:32.374Z,12.83
2019-02-24T16:24:01.743Z,12.87
2019-02-24T16:26:31.085Z,13.07
2019-02-24T16:29:00.419Z,12.70
2019-02-24T16:31:29.781Z,12.87
2019-02-24T16:33:59.117Z,12.77
2019-02-24T16:36:28.455Z,12.30
2019-02-24T16:38:57.820Z,12.50
2019-02-24T16:41:27.145Z,13.13
2019-02-24T16:43:56.474Z,12.33
2019-02-24T16:46:25.849Z,12.40
2019-02-24T16:48:55.177Z,12.43
2019-02-24T16:51:24.521Z,12.33
2019-02-24T16:53:53.881Z,12.33
2019-02-24T16:56:23.221Z,11.90
2019-02-24T16:58:52.564Z,12.77
2019-02-24T17:01:21.924Z,11.83
2019-02-24T17:03:51.696Z,11.87
2019-02-24T17:06:21.070Z,11.77
2019-02-24T17:08:52.096Z,12.43
2019-02-24T17:11:21.479Z,11.33
2019-02-24T17:13:50.830Z,12.70
2019-02-24T17:16:20.257Z,12.23
2019-02-24T17:18:49.609Z,12.43
2019-02-24T17:21:19.229Z,13.00
2019-02-24T17:23:50.129Z,13.50
2019-02-24T17:26:19.688Z,13.30
2019-02-24T17:28:49.058Z,13.30
2019-02-24T17:31:18.507Z,13.93
2019-02-24T17:33:47.836Z,13.87
2019-02-24T17:36:17.277Z,13.17
2019-02-24T17:38:46.669Z,12.50
2019-02-24T17:41:16.011Z,12.27
2019-02-24T17:43:45.376Z,11.73
2019-02-24T17:46:14.889Z,13.60
2019-02-24T17:48:44.312Z,13.40
2019-02-24T17:51:20.812Z,12.77
2019-02-24T17:53:44.740Z,11.60
2019-02-24T17:56:14.057Z,12.37
2019-02-24T17:58:43.389Z,12.87
2019-02-24T18:01:12.801Z,12.47
2019-02-24T18:03:42.159Z,12.13
2019-02-24T18:06:11.576Z,12.53
2019-02-24T18:08:40.979Z,12.00
2019-02-24T18:11:10.429Z,13.00
2019-02-24T18:13:39.838Z,12.67
2019-02-24T18:16:09.243Z,13.50
2019-02-24T18:18:38.586Z,13.90
2019-02-24T18:21:07.680Z,14.70
2019-02-24T18:23:37.110Z,13.73
2019-02-24T18:26:06.622Z,13.53
2019-02-24T18:28:37.060Z,13.47
2019-02-24T18:31:06.472Z,13.70
2019-02-24T18:33:48.123Z,14.10
2019-02-24T18:36:12.605Z,13.43
2019-02-24T18:38:41.900Z,14.60
2019-02-24T18:41:11.269Z,14.07
2019-02-24T18:43:40.306Z,15.47
2019-02-24T18:46:09.250Z,17.20
2019-02-24T18:48:38.600Z,16.37
2019-02-24T18:51:08.221Z,16.60
2019-02-24T18:53:37.299Z,14.70
2019-02-24T18:56:06.255Z,15.70
2019-02-24T18:58:35.561Z,17.20
2019-02-24T19:01:04.930Z,14.67
2019-02-24T19:03:33.938Z,18.60
2019-02-24T19:06:03.033Z,32.30
2019-02-24T19:08:32.044Z,18.87
2019-02-24T19:11:01.417Z,31.07
2019-02-24T19:13:30.460Z,21.03
2019-02-24T19:15:59.727Z,15.90
2019-02-24T19:18:29.110Z,15.50
2019-02-24T19:20:58.573Z,15.00
2019-02-24T19:23:27.939Z,15.17
2019-02-24T19:25:57.346Z,16.40
2019-02-24T19:28:26.760Z,16.10
2019-02-24T19:30:56.107Z,16.33
2019-02-24T19:33:25.605Z,16.67
2019-02-24T19:35:55.233Z,15.83
2019-02-24T19:38:24.769Z,16.23
2019-02-24T19:40:54.268Z,16.27
2019-02-24T19:43:28.844Z,15.47
2019-02-24T19:45:58.454Z,14.43
2019-02-24T19:48:28.022Z,15.40
2019-02-24T19:50:57.550Z,15.90
2019-02-24T19:53:26.939Z,14.23
2019-02-24T19:55:56.484Z,15.23
2019-02-24T19:58:26.040Z,14.67
2019-02-24T20:00:55.535Z,16.87
2019-02-24T20:03:25.057Z,15.17
2019-02-24T20:05:54.578Z,14.33
2019-02-24T20:08:24.048Z,14.37
2019-02-24T20:10:53.853Z,14.50
2019-02-24T20:13:23.604Z,13.30
2019-02-24T20:15:53.328Z,13.70
2019-02-24T20:18:23.037Z,13.87
2019-02-24T20:20:52.651Z,15.00
2019-02-24T20:23:22.335Z,14.37
2019-02-24T20:25:51.938Z,14.83
2019-02-24T20:28:21.417Z,13.40
2019-02-24T20:30:50.760Z,15.33
2019-02-24T20:33:20.269Z,15.47
2019-02-24T20:35:49.817Z,15.23
2019-02-24T20:38:19.214Z,15.40
2019-02-24T20:40:48.985Z,14.87
2019-02-24T20:43:18.535Z,13.80
2019-02-24T20:45:47.896Z,15.47
2019-02-24T20:48:17.276Z,16.20
2019-02-24T20:50:46.688Z,16.27
2019-02-24T20:53:16.140Z,17.67
2019-02-24T20:55:45.510Z,18.23
2019-02-24T20:58:14.873Z,17.93
2019-02-24T21:00:46.607Z,20.97
2019-02-24T21:03:15.965Z,18.83
2019-02-24T21:05:46.111Z,18.97
2019-02-24T21:08:35.968Z,17.93
2019-02-24T21:11:10.861Z,17.13
2019-02-24T21:13:43.406Z,17.77
2019-02-24T21:16:18.226Z,16.40
2019-02-24T21:18:56.006Z,18.13
2019-02-24T21:21:40.268Z,17.30
2019-02-24T21:24:30.550Z,15.37
2019-02-24T21:27:03.029Z,15.63
2019-02-24T21:29:35.069Z,14.33
2019-02-24T21:32:07.629Z,15.33
2019-02-24T21:34:41.592Z,14.70
2019-02-24T21:37:18.607Z,15.00
2019-02-24T21:39:53.976Z,16.10
2019-02-24T21:42:28.531Z,13.17
2019-02-24T21:45:08.721Z,15.13
2019-02-24T21:47:45.259Z,16.50
2019-02-24T21:50:22.227Z,16.77
2019-02-24T21:52:59.842Z,16.40
2019-02-24T21:58:38.932Z,19.30
2019-02-24T22:01:11.872Z,17.57
2019-02-24T22:03:42.941Z,18.47
2019-02-24T22:06:12.241Z,16.90
2019-02-24T22:08:42.925Z,17.07
2019-02-24T22:11:12.662Z,18.13
2019-02-24T22:13:42.005Z,17.80
2019-02-24T22:16:11.338Z,19.23
2019-02-24T22:18:40.692Z,20.33
2019-02-24T22:21:10.021Z,31.37
2019-02-24T22:23:39.353Z,28.60
2019-02-24T22:26:08.709Z,18.93
2019-02-24T22:28:38.040Z,17.23
2019-02-24T22:31:07.046Z,18.33
2019-02-24T22:33:36.313Z,17.60
2019-02-24T22:36:05.647Z,15.63
2019-02-24T22:38:34.969Z,15.57
2019-02-24T22:41:04.299Z,17.07
2019-02-24T22:43:33.662Z,16.40
2019-02-24T22:46:03.002Z,15.07
2019-02-24T22:48:32.365Z,17.37
2019-02-24T22:51:01.695Z,16.53
2019-02-24T22:53:31.021Z,18.00
2019-02-24T22:56:00.389Z,17.90
2019-02-24T22:58:29.708Z,16.43
2019-02-24T23:01:02.340Z,17.90
2019-02-24T23:03:34.049Z,15.87
2019-02-24T23:06:03.514Z,16.83
2019-02-24T23:08:32.852Z,15.30
2019-02-24T23:11:02.277Z,16.90
2019-02-24T23:13:31.606Z,16.03
2019-02-24T23:16:00.942Z,16.07
2019-02-24T23:18:30.298Z,15.90
2019-02-24T23:20:59.644Z,16.17
2019-02-24T23:23:28.979Z,16.87
2019-02-24T23:25:58.341Z,16.33
2019-02-24T23:28:27.696Z,15.50
2019-02-24T23:30:57.008Z,15.93
2019-02-24T23:33:26.371Z,15.67
2019-02-24T23:35:57.464Z,16.47
2019-02-24T23:38:26.737Z,15.47
2019-02-24T23:40:56.090Z,17.23
2019-02-24T23:43:25.433Z,16.73
2019-02-24T23:45:54.761Z,16.37
2019-02-24T23:48:24.131Z,17.33
2019-02-24T23:50:53.461Z,17.20
2019-02-24T23:53:22.802Z,16.63
2019-02-24T23:55:52.165Z,17.27
2019-02-24T23:58:21.499Z,17.47
